Time;durP1;ratioP1;P1;durP2;ratioP2;P2;SDS_P1;SDS_P2;PMS_P1;PMS_P2;Temp;Humidity;BMP_temperature;BMP_pressure;BME280_temperature;BME280_humidity;BME280_pressure;Samples;Min_cycle;Max_cycle;Signal;HPM_P1;HPM_P2
2023/11/27 00:01:31;;;;;;;8.75;7.32;;;;;;;1.17;100.00;148963.19;10590180;28;20394;-68
2023/11/27 00:06:33;;;;;;;9.82;7.65;;;;;;;1.20;100.00;148969.63;10590752;28;20047;-67
2023/11/27 00:11:37;;;;;;;9.35;8.20;;;;;;;1.20;100.00;148970.88;10589414;28;20053;-68
2023/11/27 00:16:39;;;;;;;9.35;7.65;;;;;;;1.37;100.00;149011.88;10590169;28;20052;-69
2023/11/27 00:21:41;;;;;;;8.40;7.60;;;;;;;1.47;100.00;149038.81;10589286;28;20090;-67
2023/11/27 00:26:43;;;;;;;8.13;7.32;;;;;;;1.45;100.00;149032.38;10588420;28;20047;-69
2023/11/27 00:31:44;;;;;;;9.32;8.40;;;;;;;1.46;100.00;149036.25;10588930;28;20114;-68
2023/11/27 00:36:46;;;;;;;9.48;8.43;;;;;;;1.40;100.00;149019.56;10588721;28;20051;-69
2023/11/27 00:41:48;;;;;;;7.57;6.53;;;;;;;1.24;100.00;148979.88;10588321;28;20069;-69
2023/11/27 00:46:50;;;;;;;7.70;6.55;;;;;;;1.15;100.00;148958.06;10589872;28;20043;-68
2023/11/27 00:51:52;;;;;;;8.65;7.72;;;;;;;1.19;100.00;148967.00;10589207;27;20479;-69
2023/11/27 00:56:54;;;;;;;8.88;7.97;;;;;;;1.21;100.00;148973.44;10587988;28;20082;-70
2023/11/27 01:01:55;;;;;;;8.07;7.28;;;;;;;1.08;100.00;148938.84;10589478;28;20115;-69
2023/11/27 01:06:59;;;;;;;11.10;7.85;;;;;;;1.10;100.00;148943.94;10588299;28;20044;-70
2023/11/27 01:12:02;;;;;;;7.30;6.50;;;;;;;1.04;100.00;148929.88;10587992;28;20046;-69
2023/11/27 01:17:03;;;;;;;7.82;6.93;;;;;;;0.97;100.00;148913.25;10588625;28;20043;-69
2023/11/27 01:22:06;;;;;;;7.78;7.00;;;;;;;1.01;100.00;148922.16;10588285;28;20035;-69
2023/11/27 01:27:08;;;;;;;8.95;7.25;;;;;;;1.13;100.00;148951.66;10587345;28;20150;-69
2023/11/27 01:32:10;;;;;;;11.35;8.40;;;;;;;1.08;100.00;148938.84;10585565;28;20058;-69
2023/11/27 01:37:12;;;;;;;9.25;8.25;;;;;;;1.13;100.00;148951.66;10585454;28;20051;-69
2023/11/27 01:42:14;;;;;;;9.85;7.80;;;;;;;1.12;100.00;148950.38;10584306;28;20044;-69
2023/11/27 01:47:16;;;;;;;7.70;6.90;;;;;;;1.10;100.00;148943.94;10585654;28;20051;-69
2023/11/27 01:52:19;;;;;;;8.02;6.70;;;;;;;1.33;100.00;149002.94;10586032;28;20563;-69
2023/11/27 01:57:22;;;;;;;8.15;7.18;;;;;;;1.40;100.00;149020.84;10584541;28;20473;-69
2023/11/27 02:02:24;;;;;;;7.20;6.53;;;;;;;1.36;100.00;149010.59;10585752;28;20036;-69
2023/11/27 02:07:26;;;;;;;6.80;5.97;;;;;;;1.31;100.00;148996.50;10583787;28;20052;-69
2023/11/27 02:12:28;;;;;;;7.13;6.43;;;;;;;1.44;100.00;149031.09;10559887;22;20098;-69
2023/11/27 02:17:30;;;;;;;6.40;5.80;;;;;;;1.14;100.00;148954.19;10522565;28;20054;-69
2023/11/27 02:22:33;;;;;;;5.57;5.07;;;;;;;0.96;100.00;148909.34;10522448;28;20127;-69
2023/11/27 02:27:36;;;;;;;7.22;5.57;;;;;;;0.98;100.00;148914.50;10541450;28;20043;-69
2023/11/27 02:32:37;;;;;;;7.18;6.00;;;;;;;1.08;100.00;148938.84;10540422;28;20032;-69
2023/11/27 02:37:39;;;;;;;5.82;5.22;;;;;;;1.31;100.00;148997.78;10521992;28;20063;-69
2023/11/27 02:42:41;;;;;;;8.85;6.80;;;;;;;1.14;100.00;148955.47;10521848;28;20040;-69
2023/11/27 02:47:43;;;;;;;6.25;5.63;;;;;;;1.20;100.00;148970.88;10521731;28;20059;-68
2023/11/27 02:52:45;;;;;;;7.70;6.25;;;;;;;0.93;100.00;148901.66;10539659;28;20044;-68
2023/11/27 02:57:47;;;;;;;7.50;6.80;;;;;;;0.94;100.00;148904.25;10539504;28;20036;-69
2023/11/27 03:02:49;;;;;;;7.15;6.40;;;;;;;0.86;100.00;148885.03;10539520;28;20074;-69
2023/11/27 03:07:51;;;;;;;6.38;5.10;;;;;;;0.86;100.00;148885.03;10539764;28;20056;-69
2023/11/27 03:12:53;;;;;;;6.28;5.47;;;;;;;0.85;100.00;148881.19;10539006;28;20035;-69
2023/11/27 03:17:55;;;;;;;6.18;5.13;;;;;;;1.04;100.00;148928.59;10539363;28;20407;-69
2023/11/27 03:22:56;;;;;;;6.10;5.18;;;;;;;1.03;100.00;148926.03;10521127;28;20066;-69
2023/11/27 03:27:58;;;;;;;5.82;5.25;;;;;;;1.04;100.00;148928.59;10520778;28;20051;-69
2023/11/27 03:33:00;;;;;;;6.18;5.38;;;;;;;0.81;100.00;148872.22;10527496;28;20568;-69
2023/11/27 03:38:02;;;;;;;7.85;6.20;;;;;;;0.62;100.00;148823.53;10547283;28;20464;-69
2023/11/27 03:43:04;;;;;;;8.45;7.18;;;;;;;0.71;100.00;148846.63;10547676;28;20036;-69
2023/11/27 03:48:06;;;;;;;6.88;6.13;;;;;;;0.67;100.00;148836.38;10547734;28;20048;-69
2023/11/27 03:53:08;;;;;;;7.28;6.25;;;;;;;0.69;100.00;148841.47;10546603;28;20040;-69
2023/11/27 03:58:10;;;;;;;7.55;6.32;;;;;;;0.74;100.00;148854.28;10546457;28;20051;-68
2023/11/27 04:03:13;;;;;;;6.82;6.18;;;;;;;0.65;100.00;148832.50;10528160;28;20040;-69
2023/11/27 04:08:15;;;;;;;8.13;7.15;;;;;;;0.61;100.00;148820.97;10527646;28;20134;-68
2023/11/27 04:13:16;;;;;;;7.60;6.60;;;;;;;0.60;100.00;148818.41;10528006;28;20047;-68
2023/11/27 04:18:18;;;;;;;9.80;6.75;;;;;;;0.91;100.00;148896.56;10527725;28;20054;-69
2023/11/27 04:23:20;;;;;;;9.73;7.88;;;;;;;0.82;100.00;148874.78;10546923;28;20119;-69
2023/11/27 04:28:22;;;;;;;8.73;7.55;;;;;;;0.57;100.00;148810.72;10545582;28;20063;-68
2023/11/27 04:33:23;;;;;;;9.27;7.68;;;;;;;0.47;100.00;148787.66;10545162;28;20036;-68
2023/11/27 04:38:25;;;;;;;9.63;7.32;;;;;;;0.65;100.00;148832.50;10527080;28;20119;-68
2023/11/27 04:43:27;;;;;;;10.90;7.95;;;;;;;1.03;100.00;148927.31;10526308;28;20407;-68
2023/11/27 04:48:30;;;;;;;7.95;7.00;;;;;;;0.66;100.00;148833.78;10545062;28;20036;-68
2023/11/27 04:53:31;;;;;;;8.95;7.10;;;;;;;0.57;100.00;148812.00;10544351;28;20036;-68
2023/11/27 04:58:33;;;;;;;11.13;8.15;;;;;;;0.50;100.00;148795.38;10544417;28;20111;-68
2023/11/27 05:03:35;;;;;;;8.18;7.00;;;;;;;0.44;100.00;148778.69;10544310;28;20384;-68
2023/11/27 05:08:36;;;;;;;10.50;6.82;;;;;;;0.72;100.00;148849.16;10543638;28;20044;-68
2023/11/27 05:13:38;;;;;;;7.72;6.55;;;;;;;0.84;100.00;148878.59;10543492;28;20118;-68
2023/11/27 05:18:43;;;;;;;8.70;7.07;;;;;;;0.65;100.00;148831.22;10543006;28;20452;-68
2023/11/27 05:23:44;;;;;;;8.63;7.63;;;;;;;0.62;100.00;148823.53;10542881;28;20040;-69
2023/11/27 05:28:46;;;;;;;9.10;7.22;;;;;;;0.82;100.00;148874.78;10507830;28;20495;-69
2023/11/27 05:33:48;;;;;;;7.88;7.05;;;;;;;0.77;100.00;148860.69;10542972;28;20432;-68
2023/11/27 05:38:50;;;;;;;7.88;7.07;;;;;;;0.80;100.00;148868.34;10542398;28;20082;-69
2023/11/27 05:43:51;;;;;;;9.80;7.57;;;;;;;0.68;100.00;148840.19;10524129;28;20063;-68
2023/11/27 05:48:53;;;;;;;6.97;6.05;;;;;;;0.64;100.00;148828.66;10541913;28;20495;-69
2023/11/27 05:53:55;;;;;;;7.47;6.63;;;;;;;0.67;100.00;148837.66;10542284;28;20040;-70
2023/11/27 05:58:57;;;;;;;9.05;6.85;;;;;;;0.67;100.00;148836.38;10541679;28;20074;-69
2023/11/27 06:03:59;;;;;;;7.90;6.25;;;;;;;0.56;100.00;148809.44;10542685;28;20127;-68
2023/11/27 06:09:01;;;;;;;7.13;5.90;;;;;;;0.60;100.00;148819.69;10541491;28;20058;-69
2023/11/27 06:14:02;;;;;;;6.93;5.40;;;;;;;0.62;100.00;148823.53;10542484;28;20131;-69
2023/11/27 06:19:06;;;;;;;8.23;6.85;;;;;;;0.58;100.00;148814.59;10523309;28;20079;-69
2023/11/27 06:24:08;;;;;;;6.90;5.97;;;;;;;0.56;100.00;148809.44;10542209;28;20032;-69
2023/11/27 06:29:10;;;;;;;8.98;7.47;;;;;;;0.85;100.00;148882.47;10541123;28;20217;-69
2023/11/27 06:34:12;;;;;;;9.63;7.78;;;;;;;0.89;100.00;148891.47;10540219;28;20074;-69
2023/11/27 06:39:15;;;;;;;8.40;6.88;;;;;;;0.71;100.00;148847.91;10524200;28;20051;-70
2023/11/27 06:44:17;;;;;;;9.18;7.88;;;;;;;0.72;100.00;148850.44;10540503;28;20063;-70
2023/11/27 06:49:20;;;;;;;8.30;7.28;;;;;;;0.99;100.00;148917.06;10540229;28;20101;-70
2023/11/27 06:54:22;;;;;;;8.23;6.82;;;;;;;0.94;100.00;148905.53;10540025;28;20046;-70
2023/11/27 06:59:23;;;;;;;9.45;7.78;;;;;;;0.86;100.00;148883.75;10521688;28;20048;-70
2023/11/27 07:04:25;;;;;;;7.97;7.20;;;;;;;1.14;100.00;148954.19;10540509;28;20115;-70
2023/11/27 07:09:27;;;;;;;7.85;6.82;;;;;;;0.95;100.00;148908.09;10521600;28;20479;-71
2023/11/27 07:14:31;;;;;;;7.82;6.28;;;;;;;0.95;100.00;148908.09;10541114;28;20105;-71
2023/11/27 07:19:32;;;;;;;9.65;7.60;;;;;;;0.89;100.00;148891.47;10539700;28;20109;-70
2023/11/27 07:24:34;;;;;;;8.18;7.38;;;;;;;1.00;100.00;148920.88;10538384;28;20044;-68
2023/11/27 07:29:36;;;;;;;11.07;8.40;;;;;;;0.94;100.00;148905.53;10538608;28;20044;-69
2023/11/27 07:34:38;;;;;;;9.10;7.78;;;;;;;0.92;100.00;148899.09;10538980;28;20449;-70
2023/11/27 07:39:40;;;;;;;12.23;7.22;;;;;;;0.97;100.00;148913.25;10539300;28;20068;-70
2023/11/27 07:44:43;;;;;;;9.82;7.70;;;;;;;1.15;100.00;148956.75;10538940;28;20054;-70
2023/11/27 07:49:45;;;;;;;10.95;9.13;;;;;;;1.15;100.00;148958.06;10539553;28;20059;-70
2023/11/27 07:54:46;;;;;;;7.05;6.28;;;;;;;1.23;100.00;148977.25;10520765;28;20139;-71
2023/11/27 07:59:49;;;;;;;8.50;7.22;;;;;;;1.25;100.00;148982.41;10538633;28;20441;-70
2023/11/27 08:04:50;;;;;;;8.80;7.80;;;;;;;1.25;100.00;148982.41;10521293;28;20126;-70
2023/11/27 08:09:53;;;;;;;10.35;9.15;;;;;;;1.29;100.00;148992.66;10538322;28;20052;-71
2023/11/27 08:14:54;;;;;;;12.23;10.93;;;;;;;1.23;100.00;148977.25;10553558;22;20043;-67
2023/11/27 08:19:57;;;;;;;11.73;10.52;;;;;;;1.20;100.00;148969.63;10547905;28;20048;-67
2023/11/27 08:25:00;;;;;;;10.38;9.38;;;;;;;1.33;100.00;149001.59;10547708;28;20090;-67
2023/11/27 08:30:05;;;;;;;8.20;7.40;;;;;;;1.51;100.00;149049.06;10529998;28;20185;-67
2023/11/27 08:35:08;;;;;;;3.33;3.03;;;;;;;1.85;100.00;149133.66;10528522;28;20044;-66
2023/11/27 08:40:12;;;;;;;3.40;2.60;;;;;;;2.06;100.00;149186.22;10525090;28;20048;-67
2023/11/27 08:45:18;;;;;;;2.47;2.28;;;;;;;2.09;100.00;149192.66;10505832;28;20037;-67
2023/11/27 08:50:24;;;;;;;2.30;2.03;;;;;;;2.18;100.00;149217.03;10487519;28;20051;-67
2023/11/27 08:55:28;;;;;;;;;;;;;;;2.17;100.00;149214.47;10506258;28;20460;-66
2023/11/27 09:00:31;;;;;;;1.88;1.67;;;;;;;2.32;100.00;149250.38;10504619;28;19921;-67
2023/11/27 09:05:33;;;;;;;1.73;1.63;;;;;;;2.48;100.00;149292.72;10503970;28;20036;-68
2023/11/27 09:10:36;;;;;;;1.73;1.60;;;;;;;2.59;100.00;149318.34;10485896;28;20120;-66
2023/11/27 09:15:39;;;;;;;2.70;2.50;;;;;;;2.63;100.00;149328.63;10503663;28;20036;-66
2023/11/27 09:20:41;;;;;;;2.05;1.45;;;;;;;2.51;100.00;149299.09;10511268;28;20083;-66
2023/11/27 09:25:42;;;;;;;1.83;1.42;;;;;;;2.58;100.00;149317.09;10522344;28;20054;-67
2023/11/27 09:30:44;;;;;;;4.45;1.60;;;;;;;2.66;100.00;149337.63;10532998;28;20051;-67
2023/11/27 09:35:46;;;;;;;1.58;1.48;;;;;;;2.77;100.00;149364.53;10545057;28;20040;-67
2023/11/27 09:40:49;;;;;;;1.77;1.38;;;;;;;2.82;100.00;149376.09;10517926;28;20127;-67
2023/11/27 09:45:51;;;;;;;2.03;1.80;;;;;;;2.94;100.00;149408.19;10545455;28;20042;-67
2023/11/27 09:50:57;;;;;;;1.90;1.80;;;;;;;3.12;100.00;149451.81;10544921;28;20392;-67
2023/11/27 09:56:00;;;;;;;1.67;1.58;;;;;;;3.20;100.00;149472.38;10543724;28;20040;-67
2023/11/27 10:01:05;;;;;;;2.38;2.03;;;;;;;3.34;100.00;149507.03;10544397;28;20090;-66
2023/11/27 10:06:08;;;;;;;2.00;1.80;;;;;;;3.47;100.00;149541.69;10545103;28;20051;-67
2023/11/27 10:11:11;;;;;;;2.20;2.00;;;;;;;3.70;100.00;149598.19;10545126;28;20044;-67
2023/11/27 10:16:13;;;;;;;2.10;1.90;;;;;;;3.83;100.00;149630.28;10544254;28;20064;-66
2023/11/27 10:21:15;;;;;;;2.33;2.13;;;;;;;3.85;100.00;149635.41;10544041;28;20044;-66
2023/11/27 10:26:20;;;;;;;6.03;4.80;;;;;;;3.73;100.00;149605.88;10525761;28;20036;-66
2023/11/27 10:31:24;;;;;;;1.80;1.70;;;;;;;3.50;100.00;149548.13;10524983;28;20070;-67
2023/11/27 10:36:26;;;;;;;1.80;1.70;;;;;;;3.59;100.00;149571.22;10543611;28;20040;-66
2023/11/27 10:41:29;;;;;;;2.15;1.92;;;;;;;3.60;100.00;149572.50;10542318;28;20403;-66
2023/11/27 10:46:31;;;;;;;2.33;2.13;;;;;;;3.59;100.00;149569.94;10541514;28;20042;-67
2023/11/27 10:51:34;;;;;;;2.28;2.08;;;;;;;3.59;100.00;149571.22;10523744;28;20486;-66
2023/11/27 10:56:39;;;;;;;2.75;2.00;;;;;;;3.42;100.00;149527.56;10541980;28;20090;-67
2023/11/27 11:01:43;;;;;;;2.08;1.98;;;;;;;3.54;100.00;149558.34;10542666;28;20522;-66
2023/11/27 11:06:51;;;;;;;2.35;2.10;;;;;;;3.56;100.00;149563.50;10543547;28;20113;-66
2023/11/27 11:11:55;;;;;;;3.45;2.97;;;;;;;3.67;100.00;149590.44;10542975;28;20070;-66
2023/11/27 11:17:07;;;;;;;2.22;2.00;;;;;;;3.60;100.00;149573.78;10543205;28;20114;-67
2023/11/27 11:22:22;;;;;;;2.80;2.60;;;;;;;3.59;100.00;149571.22;10542277;28;20384;-66
2023/11/27 11:27:34;;;;;;;2.55;2.25;;;;;;;3.54;100.00;149559.66;10542612;28;20384;-67
2023/11/27 11:32:36;;;;;;;2.83;2.33;;;;;;;3.97;100.00;149667.50;10541360;28;20040;-67
2023/11/27 11:37:49;;;;;;;3.00;2.60;;;;;;;3.64;100.00;149582.78;10540851;28;20040;-67
2023/11/27 11:42:57;;;;;;;5.53;4.95;;;;;;;4.13;100.00;149707.34;10523284;28;20067;-66
2023/11/27 11:48:00;;;;;;;5.70;5.13;;;;;;;3.99;100.00;149672.69;10540594;28;20071;-67
2023/11/27 11:53:28;;;;;;;4.70;4.28;;;;;;;4.05;100.00;149686.78;10546147;28;20047;-66
2023/11/27 11:58:30;;;;;;;5.53;5.03;;;;;;;3.86;100.00;149639.28;10548839;28;20044;-68
2023/11/27 12:03:32;;;;;;;5.28;4.78;;;;;;;3.78;100.00;149618.72;10549621;28;20036;-67
2023/11/27 12:08:37;;;;;;;6.80;6.18;;;;;;;3.85;100.00;149635.41;10549609;28;20406;-67
2023/11/27 12:13:43;;;;;;;6.97;6.28;;;;;;;3.81;100.00;149626.44;10548655;28;20071;-67
2023/11/27 12:18:49;;;;;;;6.88;6.18;;;;;;;3.86;100.00;149639.28;10548726;28;20090;-67
2023/11/27 12:23:53;;;;;;;;;;;;;;;3.84;100.00;149632.84;10515529;28;20050;-66
2023/11/27 12:28:55;;;;;;;6.68;6.05;;;;;;;3.64;100.00;149584.06;10529608;28;19920;-66
2023/11/27 12:34:02;;;;;;;5.70;5.20;;;;;;;3.86;100.00;149638.00;10550502;28;20040;-66
2023/11/27 12:39:10;;;;;;;6.93;5.72;;;;;;;3.82;100.00;149627.72;10549118;28;20102;-67
2023/11/27 12:44:13;;;;;;;6.68;6.07;;;;;;;3.84;100.00;149632.84;10549718;28;20071;-68
2023/11/27 12:49:18;;;;;;;6.18;5.57;;;;;;;3.95;100.00;149661.13;10529903;28;20525;-65
2023/11/27 12:54:21;;;;;;;6.22;5.60;;;;;;;3.70;100.00;149599.44;10547364;28;20040;-65
2023/11/27 12:59:23;;;;;;;6.85;5.82;;;;;;;3.90;100.00;149649.56;10546652;28;20119;-67
2023/11/27 13:04:35;;;;;;;7.60;6.75;;;;;;;3.72;100.00;149604.63;10545799;28;20122;-66
2023/11/27 13:09:39;;;;;;;7.07;6.40;;;;;;;3.65;100.00;149586.63;10547895;28;20384;-66
2023/11/27 13:14:46;;;;;;;8.00;6.05;;;;;;;3.56;100.00;149563.50;10547676;28;20036;-66
2023/11/27 13:19:51;;;;;;;6.78;6.03;;;;;;;3.44;100.00;149532.69;10547695;28;20083;-67
2023/11/27 13:24:53;;;;;;;6.00;5.40;;;;;;;3.28;100.00;149492.91;10547589;28;20048;-68
2023/11/27 13:29:55;;;;;;;5.68;5.13;;;;;;;3.43;100.00;149531.41;10546386;28;20048;-67
2023/11/27 13:34:58;;;;;;;5.97;5.35;;;;;;;3.26;100.00;149489.03;10526315;28;20047;-67
2023/11/27 13:40:03;;;;;;;6.22;5.65;;;;;;;3.09;100.00;149444.09;10544562;28;20075;-67
2023/11/27 13:45:14;;;;;;;6.00;5.50;;;;;;;3.26;100.00;149487.75;10544624;28;20056;-66
2023/11/27 13:50:16;;;;;;;7.35;6.65;;;;;;;3.20;100.00;149472.38;10546611;28;20085;-67
2023/11/27 13:55:18;;;;;;;7.35;6.63;;;;;;;3.22;100.00;149477.47;10545394;28;20050;-66
2023/11/27 14:00:21;;;;;;;6.57;5.50;;;;;;;3.06;100.00;149436.44;10544375;28;20040;-67
2023/11/27 14:05:36;;;;;;;6.82;5.55;;;;;;;2.96;100.00;149413.28;10544795;28;20043;-68
2023/11/27 14:11:09;;;;;;;6.75;5.53;;;;;;;3.18;100.00;149467.19;10544066;28;20036;-66
2023/11/27 14:16:31;;;;;;;7.20;6.43;;;;;;;3.14;100.00;149458.22;10553306;22;20040;-67
2023/11/27 14:31:53;;;;;;;7.13;6.40;;;;;;;3.16;100.00;149462.09;10545746;28;20121;-67
2023/11/27 14:36:55;;;;;;;7.63;6.93;;;;;;;2.81;100.00;149374.81;10541521;28;20044;-67
2023/11/27 14:41:57;;;;;;;8.65;7.82;;;;;;;2.99;100.00;149421.00;10541047;28;20040;-68
2023/11/27 14:46:59;;;;;;;9.23;8.38;;;;;;;3.24;100.00;149482.63;10541407;28;20429;-68
2023/11/27 14:52:07;;;;;;;9.23;8.32;;;;;;;2.92;100.00;149403.06;10525095;28;20396;-68
2023/11/27 14:57:09;;;;;;;9.50;8.52;;;;;;;2.89;100.00;149394.06;10541863;28;20046;-68
2023/11/27 15:02:12;;;;;;;8.95;8.10;;;;;;;2.82;100.00;149377.38;10541660;28;20040;-67
2023/11/27 15:07:15;;;;;;;8.90;8.02;;;;;;;2.57;100.00;149313.19;10522091;28;20044;-67
2023/11/27 15:12:18;;;;;;;11.60;10.05;;;;;;;2.56;100.00;149310.66;10524215;28;20049;-68
2023/11/27 15:17:21;;;;;;;8.98;8.10;;;;;;;2.59;100.00;149319.63;10539793;28;20048;-67
2023/11/27 15:22:26;;;;;;;9.93;9.02;;;;;;;2.38;100.00;149267.03;10539740;28;20040;-68
2023/11/27 15:27:30;;;;;;;9.27;8.35;;;;;;;2.39;100.00;149269.63;10544519;28;20050;-68
2023/11/27 15:32:32;;;;;;;10.73;8.82;;;;;;;2.42;100.00;149276.00;10551133;28;20032;-68
2023/11/27 15:37:33;;;;;;;9.30;8.35;;;;;;;2.70;100.00;149346.56;10551305;28;20413;-67
2023/11/27 15:42:35;;;;;;;9.38;8.18;;;;;;;2.59;100.00;149318.34;10549492;28;20040;-68
2023/11/27 15:47:37;;;;;;;9.77;8.73;;;;;;;2.46;100.00;149286.28;10529980;28;20048;-66
2023/11/27 15:52:45;;;;;;;9.38;8.25;;;;;;;2.28;100.00;149242.66;10529644;28;20147;-68
2023/11/27 15:57:48;;;;;;;10.23;8.68;;;;;;;2.21;100.00;149223.41;10534363;28;20067;-67
2023/11/27 16:02:50;;;;;;;9.98;8.60;;;;;;;2.12;100.00;149201.59;10529954;28;20055;-68
2023/11/27 16:07:52;;;;;;;9.02;8.13;;;;;;;2.22;100.00;149226.00;10529793;28;20410;-68
2023/11/27 16:12:54;;;;;;;8.95;8.10;;;;;;;2.08;100.00;149191.41;10548527;28;20388;-68
2023/11/27 16:17:58;;;;;;;10.77;9.68;;;;;;;2.20;100.00;149220.84;10551233;28;20497;-68
2023/11/27 16:23:01;;;;;;;11.07;9.98;;;;;;;2.03;100.00;149178.53;10529794;28;20398;-68
2023/11/27 16:28:07;;;;;;;10.82;9.73;;;;;;;2.22;100.00;149226.00;10529134;28;20056;-67
2023/11/27 16:33:09;;;;;;;12.82;10.25;;;;;;;2.23;100.00;149228.56;10547002;28;20044;-67
2023/11/27 16:38:11;;;;;;;11.00;9.90;;;;;;;2.25;100.00;149234.94;10546820;28;20054;-68
2023/11/27 16:43:13;;;;;;;10.13;9.05;;;;;;;2.09;100.00;149192.66;10549597;28;20552;-67
2023/11/27 16:48:15;;;;;;;10.38;9.32;;;;;;;2.27;100.00;149238.84;10546428;28;20433;-67
2023/11/27 16:53:19;;;;;;;9.88;9.02;;;;;;;2.16;100.00;149210.59;10548686;28;20044;-69
2023/11/27 16:58:24;;;;;;;10.98;9.43;;;;;;;2.21;100.00;149223.41;10529627;28;20560;-69
2023/11/27 17:03:27;;;;;;;9.45;8.45;;;;;;;2.08;100.00;149191.41;10532073;28;20115;-68
2023/11/27 17:08:30;;;;;;;11.32;9.65;;;;;;;2.22;100.00;149226.00;10528272;28;20457;-69
2023/11/27 17:13:33;;;;;;;12.25;10.02;;;;;;;2.04;100.00;149181.13;10546554;28;20093;-77
2023/11/27 17:18:35;;;;;;;13.00;9.88;;;;;;;2.06;100.00;149184.97;10547413;28;20044;-76
2023/11/27 17:23:37;;;;;;;9.98;8.70;;;;;;;2.21;100.00;149223.41;10488301;28;20045;-77
2023/11/27 17:28:39;;;;;;;11.75;9.73;;;;;;;1.93;100.00;149154.16;10487069;28;20051;-75
2023/11/27 17:33:41;;;;;;;10.15;9.15;;;;;;;2.00;100.00;149170.88;10470827;28;20049;-75
2023/11/27 17:38:44;;;;;;;12.63;9.35;;;;;;;1.88;100.00;149141.34;10504871;28;20146;-76
2023/11/27 17:43:47;;;;;;;11.57;9.40;;;;;;;1.76;100.00;149111.84;10506833;28;20060;-75
2023/11/27 17:48:49;;;;;;;10.52;9.43;;;;;;;1.91;100.00;149149.06;10504132;28;20082;-75
2023/11/27 17:53:51;;;;;;;10.40;9.38;;;;;;;2.01;100.00;149174.69;10471708;28;20098;-76
2023/11/27 17:58:53;;;;;;;10.40;9.43;;;;;;;2.00;100.00;149170.88;10527802;28;20040;-76
2023/11/27 18:03:55;;;;;;;10.30;8.57;;;;;;;1.97;100.00;149163.16;10528141;28;20517;-77
2023/11/27 18:08:58;;;;;;;11.15;9.20;;;;;;;2.03;100.00;149179.81;10552109;28;20118;-75
2023/11/27 18:14:00;;;;;;;12.07;10.07;;;;;;;2.10;100.00;149196.50;10525588;28;20036;-75
2023/11/27 18:19:04;;;;;;;10.75;8.52;;;;;;;1.98;100.00;149167.00;10547162;28;20062;-75
2023/11/27 18:24:06;;;;;;;10.60;9.48;;;;;;;1.86;100.00;149136.25;10546892;28;20048;-75
2023/11/27 18:29:08;;;;;;;9.55;8.55;;;;;;;2.06;100.00;149184.97;10528975;28;20052;-75
2023/11/27 18:34:11;;;;;;;9.40;8.50;;;;;;;1.90;100.00;149146.47;10545626;28;20051;-75
2023/11/27 18:39:13;;;;;;;9.40;8.02;;;;;;;1.86;100.00;149134.94;10544872;28;20552;-75
2023/11/27 18:44:16;;;;;;;12.25;10.15;;;;;;;1.82;100.00;149126.00;10526506;28;20165;-75
2023/11/27 18:49:18;;;;;;;9.02;8.00;;;;;;;1.69;100.00;149092.66;10513773;28;20048;-77
2023/11/27 18:54:20;;;;;;;11.43;9.23;;;;;;;1.93;100.00;149152.91;10526422;28;20206;-76
2023/11/27 18:59:26;;;;;;;8.50;7.57;;;;;;;1.87;100.00;149137.53;10556043;28;20055;-79
2023/11/27 19:04:29;;;;;;;8.93;7.90;;;;;;;1.88;100.00;149141.34;10533890;28;20439;-78
2023/11/27 19:09:32;;;;;;;9.52;8.63;;;;;;;1.96;100.00;149160.59;10541540;28;20035;-75
2023/11/27 19:14:35;;;;;;;10.48;8.95;;;;;;;1.64;100.00;149079.78;10532361;28;20096;-74
2023/11/27 19:19:37;;;;;;;11.73;10.00;;;;;;;1.96;100.00;149160.59;10530227;28;20044;-75
2023/11/27 19:24:42;;;;;;;9.48;8.48;;;;;;;1.79;100.00;149117.00;10546254;28;20036;-76
2023/11/27 19:29:44;;;;;;;11.73;9.55;;;;;;;1.90;100.00;149145.19;10545595;28;20411;-75
2023/11/27 19:34:46;;;;;;;11.55;8.57;;;;;;;1.65;100.00;149082.41;10516057;28;20047;-75
2023/11/27 19:39:48;;;;;;;11.93;9.00;;;;;;;1.65;100.00;149082.41;10527753;28;20064;-75
2023/11/27 19:44:51;;;;;;;9.63;8.48;;;;;;;1.44;100.00;149031.09;10545789;28;20068;-74
2023/11/27 19:49:53;;;;;;;10.15;9.07;;;;;;;1.63;100.00;149078.50;10529632;28;20496;-75
2023/11/27 19:54:55;;;;;;;9.13;8.23;;;;;;;1.67;100.00;149088.78;10531009;28;20040;-76
2023/11/27 19:59:57;;;;;;;9.30;8.40;;;;;;;1.62;100.00;149075.97;10509070;28;20052;-75
2023/11/27 20:04:58;;;;;;;9.70;8.70;;;;;;;1.57;100.00;149061.88;10544713;28;20036;-76
2023/11/27 20:10:01;;;;;;;9.32;8.10;;;;;;;1.55;100.00;149058.03;10508721;28;20430;-74
2023/11/27 20:15:04;;;;;;;9.65;8.18;;;;;;;1.37;100.00;149013.13;10544226;22;20068;-74
2023/11/27 20:20:14;;;;;;;10.25;8.25;;;;;;;1.15;100.00;148956.75;10532201;28;20044;-74
2023/11/27 20:25:16;;;;;;;9.18;8.27;;;;;;;1.34;100.00;149004.22;10532206;28;20115;-74
2023/11/27 20:30:19;;;;;;;10.45;8.18;;;;;;;1.27;100.00;148988.81;10550776;28;20036;-74
2023/11/27 20:35:21;;;;;;;8.35;7.50;;;;;;;1.38;100.00;149015.75;10531739;28;20091;-75
2023/11/27 20:40:23;;;;;;;8.10;7.10;;;;;;;1.46;100.00;149036.25;10550404;28;20048;-74
2023/11/27 20:45:25;;;;;;;8.23;7.43;;;;;;;1.43;100.00;149028.56;10551158;28;20503;-74
2023/11/27 20:50:27;;;;;;;6.60;5.72;;;;;;;1.20;100.00;148969.63;10531311;28;20051;-73
2023/11/27 20:55:29;;;;;;;6.32;5.45;;;;;;;1.28;100.00;148990.06;10549572;28;20042;-74
2023/11/27 21:00:31;;;;;;;7.00;6.32;;;;;;;1.46;100.00;149034.94;10549763;28;20044;-74
2023/11/27 21:05:33;;;;;;;6.82;6.10;;;;;;;1.42;100.00;149026.00;10530330;28;20036;-76
2023/11/27 21:10:35;;;;;;;4.95;3.92;;;;;;;1.47;100.00;149038.81;10548141;28;20040;-74
2023/11/27 21:15:37;;;;;;;8.55;5.47;;;;;;;1.23;100.00;148977.25;10529019;28;20048;-74
2023/11/27 21:20:39;;;;;;;5.22;4.20;;;;;;;1.20;100.00;148970.88;10547684;28;20052;-74
2023/11/27 21:25:41;;;;;;;5.10;4.60;;;;;;;1.37;100.00;149013.13;10546798;28;20075;-74
2023/11/27 21:30:43;;;;;;;4.60;4.20;;;;;;;1.48;100.00;149040.09;10547708;28;20127;-73
2023/11/27 21:35:44;;;;;;;4.28;3.80;;;;;;;1.44;100.00;149029.81;10528431;28;20372;-73
2023/11/27 21:40:46;;;;;;;4.72;4.30;;;;;;;1.22;100.00;148974.72;10547803;28;20039;-75
2023/11/27 21:45:48;;;;;;;4.20;3.47;;;;;;;1.37;100.00;149011.88;10546641;28;20043;-74
2023/11/27 21:50:50;;;;;;;4.38;3.88;;;;;;;1.21;100.00;148972.16;10546411;28;20055;-73
2023/11/27 21:55:52;;;;;;;4.60;4.13;;;;;;;1.45;100.00;149032.38;10545946;28;20032;-74
2023/11/27 22:00:54;;;;;;;3.80;3.40;;;;;;;1.26;100.00;148984.97;10546330;28;20499;-74
2023/11/27 22:05:58;;;;;;;3.53;3.17;;;;;;;1.45;100.00;149033.66;10527367;28;20168;-73
2023/11/27 22:11:00;;;;;;;4.10;3.15;;;;;;;1.47;100.00;149038.81;10545877;28;20097;-74
2023/11/27 22:16:03;;;;;;;4.38;3.70;;;;;;;1.27;100.00;148988.81;10527155;28;20040;-74
2023/11/27 22:21:05;;;;;;;3.25;2.95;;;;;;;1.30;100.00;148995.22;10545709;28;20056;-72
2023/11/27 22:26:08;;;;;;;2.83;2.53;;;;;;;1.44;100.00;149031.09;10546730;28;20536;-73
2023/11/27 22:31:20;;;;;;;3.65;2.63;;;;;;;1.28;100.00;148990.06;10545761;28;20040;-73
2023/11/27 22:36:22;;;;;;;3.22;2.92;;;;;;;1.04;100.00;148928.59;10544774;28;20040;-73
2023/11/27 22:41:24;;;;;;;2.90;2.55;;;;;;;1.10;100.00;148945.22;10543768;28;20040;-73
2023/11/27 22:46:28;;;;;;;3.28;2.97;;;;;;;1.39;100.00;149018.28;10543041;28;20508;-73
2023/11/27 22:51:29;;;;;;;3.40;2.90;;;;;;;1.39;100.00;149018.28;10542332;28;20044;-73
2023/11/27 22:56:31;;;;;;;3.45;3.15;;;;;;;1.38;100.00;149015.75;10542042;28;20107;-73
2023/11/27 23:01:33;;;;;;;3.30;2.78;;;;;;;1.36;100.00;149009.31;10524566;28;20418;-73
2023/11/27 23:06:35;;;;;;;2.50;2.30;;;;;;;1.32;100.00;148999.06;10542113;28;20448;-73
2023/11/27 23:11:46;;;;;;;2.90;2.33;;;;;;;1.25;100.00;148983.69;10541315;28;20071;-73
2023/11/27 23:16:48;;;;;;;2.60;2.40;;;;;;;1.39;100.00;149017.03;10542664;28;20059;-73
2023/11/27 23:21:51;;;;;;;2.78;2.58;;;;;;;1.30;100.00;148993.94;10542153;28;20044;-74